sensor_id;sensor_type;location;lat;lon;timestamp;P1;durP1;ratioP1;P2;durP2;ratioP2
27728;SDS011;15126;42.186;24.340;2022-07-05T00:01:16;3.77;;;3.03;;
27728;SDS011;15126;42.186;24.340;2022-07-05T00:03:43;8.30;;;2.87;;
27728;SDS011;15126;42.186;24.340;2022-07-05T00:06:11;3.67;;;3.20;;
27728;SDS011;15126;42.186;24.340;2022-07-05T00:08:38;8.03;;;2.57;;
27728;SDS011;15126;42.186;24.340;2022-07-05T00:11:05;6.37;;;2.60;;
27728;SDS011;15126;42.186;24.340;2022-07-05T00:13:32;6.57;;;2.93;;
27728;SDS011;15126;42.186;24.340;2022-07-05T00:15:59;9.00;;;2.73;;
27728;SDS011;15126;42.186;24.340;2022-07-05T00:18:26;5.17;;;2.93;;
27728;SDS011;15126;42.186;24.340;2022-07-05T00:20:53;4.43;;;3.00;;
27728;SDS011;15126;42.186;24.340;2022-07-05T00:23:21;2.83;;;2.63;;
27728;SDS011;15126;42.186;24.340;2022-07-05T00:25:48;3.87;;;2.77;;
27728;SDS011;15126;42.186;24.340;2022-07-05T00:28:15;3.30;;;2.70;;
27728;SDS011;15126;42.186;24.340;2022-07-05T00:30:42;3.57;;;2.47;;
27728;SDS011;15126;42.186;24.340;2022-07-05T00:33:09;2.93;;;2.47;;
27728;SDS011;15126;42.186;24.340;2022-07-05T00:35:36;6.93;;;3.23;;
27728;SDS011;15126;42.186;24.340;2022-07-05T00:38:03;8.37;;;5.47;;
27728;SDS011;15126;42.186;24.340;2022-07-05T00:40:31;8.57;;;4.43;;
27728;SDS011;15126;42.186;24.340;2022-07-05T00:42:58;5.37;;;3.97;;
27728;SDS011;15126;42.186;24.340;2022-07-05T00:45:25;5.70;;;4.27;;
27728;SDS011;15126;42.186;24.340;2022-07-05T00:47:52;4.27;;;3.87;;
27728;SDS011;15126;42.186;24.340;2022-07-05T00:50:19;5.40;;;4.03;;
27728;SDS011;15126;42.186;24.340;2022-07-05T00:52:47;3.70;;;3.33;;
27728;SDS011;15126;42.186;24.340;2022-07-05T00:55:15;5.83;;;3.63;;
27728;SDS011;15126;42.186;24.340;2022-07-05T00:57:44;6.77;;;4.20;;
27728;SDS011;15126;42.186;24.340;2022-07-05T01:00:12;4.70;;;3.30;;
27728;SDS011;15126;42.186;24.340;2022-07-05T01:02:39;5.10;;;3.13;;
27728;SDS011;15126;42.186;24.340;2022-07-05T01:05:06;10.07;;;5.57;;
27728;SDS011;15126;42.186;24.340;2022-07-05T01:07:34;4.53;;;3.50;;
27728;SDS011;15126;42.186;24.340;2022-07-05T01:10:01;8.77;;;4.27;;
27728;SDS011;15126;42.186;24.340;2022-07-05T01:12:28;4.03;;;3.53;;
27728;SDS011;15126;42.186;24.340;2022-07-05T01:14:56;6.27;;;3.77;;
27728;SDS011;15126;42.186;24.340;2022-07-05T01:17:24;5.80;;;3.40;;
27728;SDS011;15126;42.186;24.340;2022-07-05T01:19:51;8.43;;;3.57;;
27728;SDS011;15126;42.186;24.340;2022-07-05T01:22:20;5.97;;;3.83;;
27728;SDS011;15126;42.186;24.340;2022-07-05T01:24:49;6.40;;;3.87;;
27728;SDS011;15126;42.186;24.340;2022-07-05T01:27:17;5.27;;;3.93;;
27728;SDS011;15126;42.186;24.340;2022-07-05T01:29:44;6.17;;;3.40;;
27728;SDS011;15126;42.186;24.340;2022-07-05T01:32:12;8.83;;;4.33;;
27728;SDS011;15126;42.186;24.340;2022-07-05T01:34:40;3.87;;;3.57;;
27728;SDS011;15126;42.186;24.340;2022-07-05T01:37:08;5.93;;;4.30;;
27728;SDS011;15126;42.186;24.340;2022-07-05T01:39:35;6.97;;;3.70;;
27728;SDS011;15126;42.186;24.340;2022-07-05T01:42:04;4.17;;;3.80;;
27728;SDS011;15126;42.186;24.340;2022-07-05T01:44:32;5.93;;;4.13;;
27728;SDS011;15126;42.186;24.340;2022-07-05T01:47:02;6.63;;;4.13;;
27728;SDS011;15126;42.186;24.340;2022-07-05T01:49:31;7.50;;;4.50;;
27728;SDS011;15126;42.186;24.340;2022-07-05T01:52:04;5.83;;;4.17;;
27728;SDS011;15126;42.186;24.340;2022-07-05T01:54:35;6.77;;;4.00;;
27728;SDS011;15126;42.186;24.340;2022-07-05T01:57:04;6.50;;;3.63;;
27728;SDS011;15126;42.186;24.340;2022-07-05T01:59:34;8.10;;;4.60;;
27728;SDS011;15126;42.186;24.340;2022-07-05T02:02:02;5.90;;;4.40;;
27728;SDS011;15126;42.186;24.340;2022-07-05T02:04:30;8.17;;;5.23;;
27728;SDS011;15126;42.186;24.340;2022-07-05T02:06:59;6.87;;;4.67;;
27728;SDS011;15126;42.186;24.340;2022-07-05T02:09:26;6.23;;;4.70;;
27728;SDS011;15126;42.186;24.340;2022-07-05T02:11:53;6.47;;;4.13;;
27728;SDS011;15126;42.186;24.340;2022-07-05T02:14:21;8.23;;;4.93;;
27728;SDS011;15126;42.186;24.340;2022-07-05T02:16:48;7.80;;;4.83;;
27728;SDS011;15126;42.186;24.340;2022-07-05T02:19:15;6.13;;;4.50;;
27728;SDS011;15126;42.186;24.340;2022-07-05T02:21:42;5.13;;;4.53;;
27728;SDS011;15126;42.186;24.340;2022-07-05T02:24:09;8.10;;;4.03;;
27728;SDS011;15126;42.186;24.340;2022-07-05T02:26:36;5.40;;;4.90;;
27728;SDS011;15126;42.186;24.340;2022-07-05T02:29:03;7.37;;;5.10;;
27728;SDS011;15126;42.186;24.340;2022-07-05T02:31:32;6.57;;;5.20;;
27728;SDS011;15126;42.186;24.340;2022-07-05T02:33:59;7.17;;;4.97;;
27728;SDS011;15126;42.186;24.340;2022-07-05T02:36:26;8.27;;;5.07;;
27728;SDS011;15126;42.186;24.340;2022-07-05T02:38:53;19.40;;;4.90;;
27728;SDS011;15126;42.186;24.340;2022-07-05T02:41:20;6.00;;;4.97;;
27728;SDS011;15126;42.186;24.340;2022-07-05T02:43:47;8.27;;;5.57;;
27728;SDS011;15126;42.186;24.340;2022-07-05T02:46:14;11.10;;;6.10;;
27728;SDS011;15126;42.186;24.340;2022-07-05T02:48:43;7.73;;;4.87;;
27728;SDS011;15126;42.186;24.340;2022-07-05T02:51:10;8.00;;;5.53;;
27728;SDS011;15126;42.186;24.340;2022-07-05T02:53:37;5.60;;;5.10;;
27728;SDS011;15126;42.186;24.340;2022-07-05T02:56:04;6.37;;;4.67;;
27728;SDS011;15126;42.186;24.340;2022-07-05T02:58:31;7.93;;;4.73;;
27728;SDS011;15126;42.186;24.340;2022-07-05T03:00:58;6.70;;;5.40;;
27728;SDS011;15126;42.186;24.340;2022-07-05T03:03:25;7.10;;;5.43;;
27728;SDS011;15126;42.186;24.340;2022-07-05T03:05:53;9.00;;;4.80;;
27728;SDS011;15126;42.186;24.340;2022-07-05T03:08:20;8.23;;;5.40;;
27728;SDS011;15126;42.186;24.340;2022-07-05T03:10:48;7.07;;;5.03;;
27728;SDS011;15126;42.186;24.340;2022-07-05T03:13:15;6.50;;;5.27;;
27728;SDS011;15126;42.186;24.340;2022-07-05T03:15:43;6.77;;;5.73;;
27728;SDS011;15126;42.186;24.340;2022-07-05T03:18:10;7.37;;;5.47;;
27728;SDS011;15126;42.186;24.340;2022-07-05T03:20:37;5.30;;;4.80;;
27728;SDS011;15126;42.186;24.340;2022-07-05T03:23:05;7.17;;;5.00;;
27728;SDS011;15126;42.186;24.340;2022-07-05T03:25:32;7.87;;;5.87;;
27728;SDS011;15126;42.186;24.340;2022-07-05T03:27:59;9.60;;;6.00;;
27728;SDS011;15126;42.186;24.340;2022-07-05T03:30:26;8.63;;;5.17;;
27728;SDS011;15126;42.186;24.340;2022-07-05T03:32:53;6.53;;;5.37;;
27728;SDS011;15126;42.186;24.340;2022-07-05T03:35:20;5.40;;;4.80;;
27728;SDS011;15126;42.186;24.340;2022-07-05T03:37:47;6.17;;;4.67;;
27728;SDS011;15126;42.186;24.340;2022-07-05T03:40:16;9.30;;;5.10;;
27728;SDS011;15126;42.186;24.340;2022-07-05T03:42:43;9.70;;;4.93;;
27728;SDS011;15126;42.186;24.340;2022-07-05T03:45:10;5.67;;;5.03;;
27728;SDS011;15126;42.186;24.340;2022-07-05T03:47:37;6.07;;;5.47;;
27728;SDS011;15126;42.186;24.340;2022-07-05T03:50:04;11.30;;;5.53;;
27728;SDS011;15126;42.186;24.340;2022-07-05T03:52:32;10.27;;;5.47;;
27728;SDS011;15126;42.186;24.340;2022-07-05T03:54:59;8.50;;;5.33;;
27728;SDS011;15126;42.186;24.340;2022-07-05T03:57:28;8.20;;;5.27;;
27728;SDS011;15126;42.186;24.340;2022-07-05T03:59:55;7.53;;;4.87;;
27728;SDS011;15126;42.186;24.340;2022-07-05T04:02:22;7.47;;;5.20;;
27728;SDS011;15126;42.186;24.340;2022-07-05T04:04:49;9.00;;;5.03;;
27728;SDS011;15126;42.186;24.340;2022-07-05T04:07:16;7.50;;;4.63;;
27728;SDS011;15126;42.186;24.340;2022-07-05T04:09:43;5.77;;;5.17;;
27728;SDS011;15126;42.186;24.340;2022-07-05T04:12:10;5.73;;;5.23;;
27728;SDS011;15126;42.186;24.340;2022-07-05T04:14:38;5.93;;;5.43;;
27728;SDS011;15126;42.186;24.340;2022-07-05T04:17:05;8.30;;;5.97;;
27728;SDS011;15126;42.186;24.340;2022-07-05T04:19:33;7.13;;;4.80;;
27728;SDS011;15126;42.186;24.340;2022-07-05T04:22:00;13.87;;;6.60;;
27728;SDS011;15126;42.186;24.340;2022-07-05T04:24:27;11.93;;;5.57;;
27728;SDS011;15126;42.186;24.340;2022-07-05T04:26:54;5.63;;;4.53;;
27728;SDS011;15126;42.186;24.340;2022-07-05T04:29:21;8.80;;;4.90;;
27728;SDS011;15126;42.186;24.340;2022-07-05T04:31:50;6.13;;;4.10;;
27728;SDS011;15126;42.186;24.340;2022-07-05T04:34:17;7.73;;;4.83;;
27728;SDS011;15126;42.186;24.340;2022-07-05T04:36:44;6.93;;;4.67;;
27728;SDS011;15126;42.186;24.340;2022-07-05T04:39:10;9.60;;;4.80;;
27728;SDS011;15126;42.186;24.340;2022-07-05T04:41:37;10.00;;;4.37;;
27728;SDS011;15126;42.186;24.340;2022-07-05T04:44:04;4.43;;;3.70;;
27728;SDS011;15126;42.186;24.340;2022-07-05T04:46:31;9.17;;;4.60;;
27728;SDS011;15126;42.186;24.340;2022-07-05T04:49:00;5.63;;;4.97;;
27728;SDS011;15126;42.186;24.340;2022-07-05T04:51:27;5.53;;;4.83;;
27728;SDS011;15126;42.186;24.340;2022-07-05T04:53:54;7.80;;;5.23;;
27728;SDS011;15126;42.186;24.340;2022-07-05T04:56:22;5.53;;;4.13;;
27728;SDS011;15126;42.186;24.340;2022-07-05T04:58:49;8.47;;;4.67;;
27728;SDS011;15126;42.186;24.340;2022-07-05T05:01:16;7.87;;;5.60;;
27728;SDS011;15126;42.186;24.340;2022-07-05T05:03:43;6.67;;;5.27;;
27728;SDS011;15126;42.186;24.340;2022-07-05T05:06:11;7.93;;;5.40;;
27728;SDS011;15126;42.186;24.340;2022-07-05T05:08:39;6.73;;;5.07;;
27728;SDS011;15126;42.186;24.340;2022-07-05T05:11:06;9.43;;;5.13;;
27728;SDS011;15126;42.186;24.340;2022-07-05T05:13:34;5.77;;;4.57;;
27728;SDS011;15126;42.186;24.340;2022-07-05T05:16:01;6.13;;;5.43;;
27728;SDS011;15126;42.186;24.340;2022-07-05T05:18:28;7.67;;;5.80;;
27728;SDS011;15126;42.186;24.340;2022-07-05T05:20:55;6.60;;;4.63;;
27728;SDS011;15126;42.186;24.340;2022-07-05T05:23:24;8.10;;;4.90;;
27728;SDS011;15126;42.186;24.340;2022-07-05T05:25:51;8.50;;;4.90;;
27728;SDS011;15126;42.186;24.340;2022-07-05T05:28:18;7.53;;;5.40;;
27728;SDS011;15126;42.186;24.340;2022-07-05T05:30:45;6.00;;;5.47;;
27728;SDS011;15126;42.186;24.340;2022-07-05T05:33:12;9.97;;;4.83;;
27728;SDS011;15126;42.186;24.340;2022-07-05T05:35:40;6.93;;;4.87;;
27728;SDS011;15126;42.186;24.340;2022-07-05T05:38:07;8.00;;;5.00;;
27728;SDS011;15126;42.186;24.340;2022-07-05T05:40:36;5.93;;;5.43;;
27728;SDS011;15126;42.186;24.340;2022-07-05T05:43:06;8.40;;;5.17;;
27728;SDS011;15126;42.186;24.340;2022-07-05T05:45:33;10.27;;;5.67;;
27728;SDS011;15126;42.186;24.340;2022-07-05T05:48:00;5.60;;;5.10;;
27728;SDS011;15126;42.186;24.340;2022-07-05T05:50:28;9.73;;;5.73;;
27728;SDS011;15126;42.186;24.340;2022-07-05T05:52:57;6.93;;;5.07;;
27728;SDS011;15126;42.186;24.340;2022-07-05T05:55:25;5.70;;;5.20;;
27728;SDS011;15126;42.186;24.340;2022-07-05T05:57:55;4.87;;;4.37;;
27728;SDS011;15126;42.186;24.340;2022-07-05T06:00:23;7.57;;;4.80;;
27728;SDS011;15126;42.186;24.340;2022-07-05T06:02:51;9.23;;;5.20;;
27728;SDS011;15126;42.186;24.340;2022-07-05T06:05:18;12.13;;;4.80;;
27728;SDS011;15126;42.186;24.340;2022-07-05T06:07:46;7.90;;;5.03;;
27728;SDS011;15126;42.186;24.340;2022-07-05T06:10:15;6.43;;;4.90;;
27728;SDS011;15126;42.186;24.340;2022-07-05T06:12:43;9.20;;;5.57;;
27728;SDS011;15126;42.186;24.340;2022-07-05T06:15:11;10.47;;;5.90;;
27728;SDS011;15126;42.186;24.340;2022-07-05T06:17:39;12.33;;;4.87;;
27728;SDS011;15126;42.186;24.340;2022-07-05T06:20:06;12.00;;;5.37;;
27728;SDS011;15126;42.186;24.340;2022-07-05T06:22:35;5.83;;;5.03;;
27728;SDS011;15126;42.186;24.340;2022-07-05T06:25:02;7.23;;;5.00;;
27728;SDS011;15126;42.186;24.340;2022-07-05T06:27:30;6.55;;;5.88;;
27728;SDS011;15126;42.186;24.340;2022-07-05T06:29:57;11.73;;;5.83;;
27728;SDS011;15126;42.186;24.340;2022-07-05T06:32:26;7.60;;;5.30;;
27728;SDS011;15126;42.186;24.340;2022-07-05T06:34:53;7.30;;;5.23;;
27728;SDS011;15126;42.186;24.340;2022-07-05T06:37:20;5.93;;;5.17;;
27728;SDS011;15126;42.186;24.340;2022-07-05T06:39:47;11.20;;;5.50;;
27728;SDS011;15126;42.186;24.340;2022-07-05T06:42:14;8.73;;;5.53;;
27728;SDS011;15126;42.186;24.340;2022-07-05T06:44:41;7.20;;;5.83;;
27728;SDS011;15126;42.186;24.340;2022-07-05T06:47:09;5.78;;;4.82;;
27728;SDS011;15126;42.186;24.340;2022-07-05T06:49:37;5.63;;;4.80;;
27728;SDS011;15126;42.186;24.340;2022-07-05T06:52:04;6.53;;;4.60;;
27728;SDS011;15126;42.186;24.340;2022-07-05T06:54:32;8.13;;;5.20;;
27728;SDS011;15126;42.186;24.340;2022-07-05T06:56:59;5.20;;;4.80;;
27728;SDS011;15126;42.186;24.340;2022-07-05T06:59:26;6.32;;;5.40;;
27728;SDS011;15126;42.186;24.340;2022-07-05T07:01:53;6.88;;;4.82;;
27728;SDS011;15126;42.186;24.340;2022-07-05T07:04:20;6.35;;;4.78;;
27728;SDS011;15126;42.186;24.340;2022-07-05T07:06:48;7.72;;;5.55;;
27728;SDS011;15126;42.186;24.340;2022-07-05T07:09:15;8.27;;;5.88;;
27728;SDS011;15126;42.186;24.340;2022-07-05T07:11:46;7.82;;;6.00;;
27728;SDS011;15126;42.186;24.340;2022-07-05T07:14:13;5.90;;;5.00;;
27728;SDS011;15126;42.186;24.340;2022-07-05T07:16:40;11.15;;;5.55;;
27728;SDS011;15126;42.186;24.340;2022-07-05T07:19:07;7.38;;;5.35;;
27728;SDS011;15126;42.186;24.340;2022-07-05T07:21:34;7.78;;;5.05;;
27728;SDS011;15126;42.186;24.340;2022-07-05T07:24:03;10.48;;;5.13;;
27728;SDS011;15126;42.186;24.340;2022-07-05T07:26:30;4.95;;;4.38;;
27728;SDS011;15126;42.186;24.340;2022-07-05T07:29:17;6.70;;;5.07;;
27728;SDS011;15126;42.186;24.340;2022-07-05T07:31:44;8.25;;;4.88;;
27728;SDS011;15126;42.186;24.340;2022-07-05T07:34:11;7.10;;;5.90;;
27728;SDS011;15126;42.186;24.340;2022-07-05T07:36:38;5.82;;;4.97;;
27728;SDS011;15126;42.186;24.340;2022-07-05T07:39:07;6.10;;;5.28;;
27728;SDS011;15126;42.186;24.340;2022-07-05T07:41:34;7.65;;;5.63;;
27728;SDS011;15126;42.186;24.340;2022-07-05T07:44:01;6.45;;;5.10;;
27728;SDS011;15126;42.186;24.340;2022-07-05T07:46:28;6.35;;;5.78;;
27728;SDS011;15126;42.186;24.340;2022-07-05T07:48:55;5.80;;;5.30;;
27728;SDS011;15126;42.186;24.340;2022-07-05T07:51:22;11.32;;;5.25;;
27728;SDS011;15126;42.186;24.340;2022-07-05T07:53:49;5.30;;;4.80;;
27728;SDS011;15126;42.186;24.340;2022-07-05T07:56:18;6.45;;;5.45;;
27728;SDS011;15126;42.186;24.340;2022-07-05T07:58:46;10.40;;;5.85;;
27728;SDS011;15126;42.186;24.340;2022-07-05T08:01:13;6.07;;;5.47;;
27728;SDS011;15126;42.186;24.340;2022-07-05T08:03:40;7.03;;;5.03;;
27728;SDS011;15126;42.186;24.340;2022-07-05T08:06:08;5.82;;;5.32;;
27728;SDS011;15126;42.186;24.340;2022-07-05T08:08:36;6.10;;;5.50;;
27728;SDS011;15126;42.186;24.340;2022-07-05T08:11:04;11.10;;;5.72;;
27728;SDS011;15126;42.186;24.340;2022-07-05T08:13:33;5.50;;;5.00;;
27728;SDS011;15126;42.186;24.340;2022-07-05T08:16:00;9.88;;;5.03;;
27728;SDS011;15126;42.186;24.340;2022-07-05T08:18:27;7.88;;;5.18;;
27728;SDS011;15126;42.186;24.340;2022-07-05T08:21:12;8.13;;;5.30;;
27728;SDS011;15126;42.186;24.340;2022-07-05T08:24:00;5.70;;;4.65;;
27728;SDS011;15126;42.186;24.340;2022-07-05T08:26:29;6.18;;;4.80;;
27728;SDS011;15126;42.186;24.340;2022-07-05T08:28:58;5.20;;;4.80;;
27728;SDS011;15126;42.186;24.340;2022-07-05T08:31:26;7.55;;;5.05;;
27728;SDS011;15126;42.186;24.340;2022-07-05T08:33:54;6.45;;;5.43;;
27728;SDS011;15126;42.186;24.340;2022-07-05T08:36:21;9.73;;;5.95;;
27728;SDS011;15126;42.186;24.340;2022-07-05T08:38:48;6.97;;;5.03;;
27728;SDS011;15126;42.186;24.340;2022-07-05T08:41:17;8.07;;;5.45;;
27728;SDS011;15126;42.186;24.340;2022-07-05T08:43:46;7.85;;;5.50;;
27728;SDS011;15126;42.186;24.340;2022-07-05T08:46:15;6.82;;;5.03;;
27728;SDS011;15126;42.186;24.340;2022-07-05T08:48:44;7.90;;;4.45;;
27728;SDS011;15126;42.186;24.340;2022-07-05T08:51:15;11.27;;;4.97;;
27728;SDS011;15126;42.186;24.340;2022-07-05T08:53:44;10.27;;;4.65;;
27728;SDS011;15126;42.186;24.340;2022-07-05T08:56:12;7.75;;;4.05;;
27728;SDS011;15126;42.186;24.340;2022-07-05T08:58:40;7.82;;;5.22;;
27728;SDS011;15126;42.186;24.340;2022-07-05T09:01:08;6.32;;;5.07;;
27728;SDS011;15126;42.186;24.340;2022-07-05T09:03:38;10.43;;;4.50;;
27728;SDS011;15126;42.186;24.340;2022-07-05T09:06:08;5.55;;;4.15;;
27728;SDS011;15126;42.186;24.340;2022-07-05T09:08:38;5.25;;;4.78;;
27728;SDS011;15126;42.186;24.340;2022-07-05T09:11:06;4.18;;;3.88;;
27728;SDS011;15126;42.186;24.340;2022-07-05T09:13:34;3.88;;;3.50;;
27728;SDS011;15126;42.186;24.340;2022-07-05T09:16:02;7.03;;;4.50;;
27728;SDS011;15126;42.186;24.340;2022-07-05T09:18:44;6.13;;;4.22;;
27728;SDS011;15126;42.186;24.340;2022-07-05T09:21:13;6.43;;;3.78;;
27728;SDS011;15126;42.186;24.340;2022-07-05T09:23:41;5.95;;;4.15;;
27728;SDS011;15126;42.186;24.340;2022-07-05T09:26:08;5.80;;;3.95;;
27728;SDS011;15126;42.186;24.340;2022-07-05T09:28:37;8.32;;;4.85;;
27728;SDS011;15126;42.186;24.340;2022-07-05T09:31:04;6.53;;;4.25;;
27728;SDS011;15126;42.186;24.340;2022-07-05T09:33:31;6.05;;;4.95;;
27728;SDS011;15126;42.186;24.340;2022-07-05T09:35:59;10.45;;;4.82;;
27728;SDS011;15126;42.186;24.340;2022-07-05T09:38:26;7.63;;;4.55;;
27728;SDS011;15126;42.186;24.340;2022-07-05T09:40:55;6.43;;;4.90;;
27728;SDS011;15126;42.186;24.340;2022-07-05T09:43:24;8.15;;;5.38;;
27728;SDS011;15126;42.186;24.340;2022-07-05T09:45:52;5.95;;;4.45;;
27728;SDS011;15126;42.186;24.340;2022-07-05T09:48:20;6.65;;;4.60;;
27728;SDS011;15126;42.186;24.340;2022-07-05T09:50:48;4.68;;;4.28;;
27728;SDS011;15126;42.186;24.340;2022-07-05T09:53:17;5.25;;;4.53;;
27728;SDS011;15126;42.186;24.340;2022-07-05T09:55:59;6.13;;;4.10;;
27728;SDS011;15126;42.186;24.340;2022-07-05T09:58:27;9.88;;;4.63;;
27728;SDS011;15126;42.186;24.340;2022-07-05T10:00:55;4.85;;;4.05;;
27728;SDS011;15126;42.186;24.340;2022-07-05T10:03:22;4.85;;;3.92;;
27728;SDS011;15126;42.186;24.340;2022-07-05T10:05:49;5.85;;;3.90;;
27728;SDS011;15126;42.186;24.340;2022-07-05T10:08:17;4.78;;;4.32;;
27728;SDS011;15126;42.186;24.340;2022-07-05T10:10:46;10.25;;;5.13;;
27728;SDS011;15126;42.186;24.340;2022-07-05T10:13:16;5.32;;;4.55;;
27728;SDS011;15126;42.186;24.340;2022-07-05T10:15:43;5.90;;;4.25;;
27728;SDS011;15126;42.186;24.340;2022-07-05T10:18:12;5.07;;;4.13;;
27728;SDS011;15126;42.186;24.340;2022-07-05T10:20:43;4.80;;;4.40;;
27728;SDS011;15126;42.186;24.340;2022-07-05T10:23:11;5.57;;;4.25;;
27728;SDS011;15126;42.186;24.340;2022-07-05T10:25:42;6.90;;;4.13;;
27728;SDS011;15126;42.186;24.340;2022-07-05T10:28:09;4.75;;;4.35;;
27728;SDS011;15126;42.186;24.340;2022-07-05T10:30:37;5.72;;;3.45;;
27728;SDS011;15126;42.186;24.340;2022-07-05T10:33:05;5.10;;;4.47;;
27728;SDS011;15126;42.186;24.340;2022-07-05T10:35:34;7.35;;;4.07;;
27728;SDS011;15126;42.186;24.340;2022-07-05T10:38:01;9.93;;;3.83;;
27728;SDS011;15126;42.186;24.340;2022-07-05T10:40:30;4.60;;;4.15;;
27728;SDS011;15126;42.186;24.340;2022-07-05T10:43:01;4.65;;;4.20;;
27728;SDS011;15126;42.186;24.340;2022-07-05T10:45:32;4.57;;;3.53;;
27728;SDS011;15126;42.186;24.340;2022-07-05T10:48:16;5.07;;;4.05;;
27728;SDS011;15126;42.186;24.340;2022-07-05T10:50:47;6.40;;;3.28;;
27728;SDS011;15126;42.186;24.340;2022-07-05T10:53:16;5.47;;;3.90;;
27728;SDS011;15126;42.186;24.340;2022-07-05T10:55:48;5.63;;;3.45;;
27728;SDS011;15126;42.186;24.340;2022-07-05T10:58:30;6.32;;;3.63;;
27728;SDS011;15126;42.186;24.340;2022-07-05T11:04:13;5.32;;;4.10;;
27728;SDS011;15126;42.186;24.340;2022-07-05T11:06:55;3.72;;;3.30;;
27728;SDS011;15126;42.186;24.340;2022-07-05T11:09:22;7.95;;;4.22;;
27728;SDS011;15126;42.186;24.340;2022-07-05T11:12:02;3.90;;;3.40;;
27728;SDS011;15126;42.186;24.340;2022-07-05T11:14:39;5.65;;;3.53;;
27728;SDS011;15126;42.186;24.340;2022-07-05T11:19:58;5.55;;;3.10;;
27728;SDS011;15126;42.186;24.340;2022-07-05T11:22:31;7.70;;;4.05;;
27728;SDS011;15126;42.186;24.340;2022-07-05T11:24:59;5.32;;;3.80;;
27728;SDS011;15126;42.186;24.340;2022-07-05T11:27:27;6.35;;;3.75;;
27728;SDS011;15126;42.186;24.340;2022-07-05T11:29:56;5.40;;;3.40;;
27728;SDS011;15126;42.186;24.340;2022-07-05T11:32:26;4.20;;;3.47;;
27728;SDS011;15126;42.186;24.340;2022-07-05T11:35:11;3.40;;;3.10;;
27728;SDS011;15126;42.186;24.340;2022-07-05T11:37:59;8.98;;;3.60;;
27728;SDS011;15126;42.186;24.340;2022-07-05T11:40:29;3.72;;;3.42;;
27728;SDS011;15126;42.186;24.340;2022-07-05T11:42:59;4.90;;;3.20;;
27728;SDS011;15126;42.186;24.340;2022-07-05T11:45:29;6.03;;;3.45;;
27728;SDS011;15126;42.186;24.340;2022-07-05T11:47:57;4.15;;;3.55;;
27728;SDS011;15126;42.186;24.340;2022-07-05T11:50:25;3.65;;;3.38;;
27728;SDS011;15126;42.186;24.340;2022-07-05T11:52:54;4.35;;;3.58;;
27728;SDS011;15126;42.186;24.340;2022-07-05T11:55:21;4.75;;;4.22;;
27728;SDS011;15126;42.186;24.340;2022-07-05T11:57:50;4.05;;;3.53;;
27728;SDS011;15126;42.186;24.340;2022-07-05T12:00:25;5.15;;;4.75;;
27728;SDS011;15126;42.186;24.340;2022-07-05T12:02:58;4.15;;;3.35;;
27728;SDS011;15126;42.186;24.340;2022-07-05T12:05:29;7.00;;;3.97;;
27728;SDS011;15126;42.186;24.340;2022-07-05T12:07:58;3.65;;;3.38;;
27728;SDS011;15126;42.186;24.340;2022-07-05T12:10:25;7.22;;;3.92;;
27728;SDS011;15126;42.186;24.340;2022-07-05T12:13:09;5.20;;;4.05;;
27728;SDS011;15126;42.186;24.340;2022-07-05T12:15:38;5.60;;;4.15;;
27728;SDS011;15126;42.186;24.340;2022-07-05T12:18:06;4.60;;;4.22;;
27728;SDS011;15126;42.186;24.340;2022-07-05T12:20:37;6.43;;;5.03;;
27728;SDS011;15126;42.186;24.340;2022-07-05T12:23:05;10.18;;;4.95;;
27728;SDS011;15126;42.186;24.340;2022-07-05T12:25:33;6.70;;;5.50;;
27728;SDS011;15126;42.186;24.340;2022-07-05T12:28:01;6.60;;;5.75;;
27728;SDS011;15126;42.186;24.340;2022-07-05T12:30:32;8.13;;;5.95;;
27728;SDS011;15126;42.186;24.340;2022-07-05T12:33:01;9.57;;;6.43;;
27728;SDS011;15126;42.186;24.340;2022-07-05T12:35:34;5.90;;;5.40;;
27728;SDS011;15126;42.186;24.340;2022-07-05T12:38:03;7.43;;;5.68;;
27728;SDS011;15126;42.186;24.340;2022-07-05T12:40:32;9.98;;;5.90;;
27728;SDS011;15126;42.186;24.340;2022-07-05T12:43:00;5.85;;;5.15;;
27728;SDS011;15126;42.186;24.340;2022-07-05T12:45:29;6.13;;;5.63;;
27728;SDS011;15126;42.186;24.340;2022-07-05T12:47:57;8.38;;;5.85;;
27728;SDS011;15126;42.186;24.340;2022-07-05T12:50:27;7.25;;;6.47;;
27728;SDS011;15126;42.186;24.340;2022-07-05T12:52:57;8.88;;;6.38;;
27728;SDS011;15126;42.186;24.340;2022-07-05T12:55:50;8.02;;;6.30;;
27728;SDS011;15126;42.186;24.340;2022-07-05T12:58:47;8.60;;;6.47;;
27728;SDS011;15126;42.186;24.340;2022-07-05T13:01:18;7.95;;;6.63;;
27728;SDS011;15126;42.186;24.340;2022-07-05T13:04:00;7.07;;;6.10;;
27728;SDS011;15126;42.186;24.340;2022-07-05T13:06:44;8.15;;;6.05;;
27728;SDS011;15126;42.186;24.340;2022-07-05T13:09:14;6.82;;;6.20;;
27728;SDS011;15126;42.186;24.340;2022-07-05T13:11:43;8.90;;;5.45;;
27728;SDS011;15126;42.186;24.340;2022-07-05T13:14:10;6.40;;;5.80;;
27728;SDS011;15126;42.186;24.340;2022-07-05T13:16:37;7.10;;;6.30;;
27728;SDS011;15126;42.186;24.340;2022-07-05T13:19:10;7.43;;;6.25;;
27728;SDS011;15126;42.186;24.340;2022-07-05T13:21:38;8.20;;;6.85;;
27728;SDS011;15126;42.186;24.340;2022-07-05T13:24:07;6.25;;;5.65;;
27728;SDS011;15126;42.186;24.340;2022-07-05T13:26:34;12.23;;;7.13;;
27728;SDS011;15126;42.186;24.340;2022-07-05T13:29:01;9.57;;;6.80;;
27728;SDS011;15126;42.186;24.340;2022-07-05T13:31:28;9.30;;;6.10;;
27728;SDS011;15126;42.186;24.340;2022-07-05T13:33:56;7.03;;;6.40;;
27728;SDS011;15126;42.186;24.340;2022-07-05T13:36:24;9.20;;;6.40;;
27728;SDS011;15126;42.186;24.340;2022-07-05T13:38:51;10.82;;;7.38;;
27728;SDS011;15126;42.186;24.340;2022-07-05T13:41:20;8.52;;;6.65;;
27728;SDS011;15126;42.186;24.340;2022-07-05T13:43:47;10.80;;;7.35;;
27728;SDS011;15126;42.186;24.340;2022-07-05T13:46:14;7.28;;;5.95;;
27728;SDS011;15126;42.186;24.340;2022-07-05T13:48:41;7.95;;;7.13;;
27728;SDS011;15126;42.186;24.340;2022-07-05T13:51:08;7.63;;;6.93;;
27728;SDS011;15126;42.186;24.340;2022-07-05T13:53:36;10.60;;;7.28;;
27728;SDS011;15126;42.186;24.340;2022-07-05T13:56:03;13.55;;;7.57;;
27728;SDS011;15126;42.186;24.340;2022-07-05T13:58:32;10.13;;;8.38;;
27728;SDS011;15126;42.186;24.340;2022-07-05T14:00:59;8.48;;;6.90;;
27728;SDS011;15126;42.186;24.340;2022-07-05T14:03:27;11.80;;;6.78;;
27728;SDS011;15126;42.186;24.340;2022-07-05T14:05:55;9.80;;;6.65;;
27728;SDS011;15126;42.186;24.340;2022-07-05T14:08:22;9.60;;;7.03;;
27728;SDS011;15126;42.186;24.340;2022-07-05T14:10:50;7.15;;;6.53;;
27728;SDS011;15126;42.186;24.340;2022-07-05T14:13:18;7.70;;;6.78;;
27728;SDS011;15126;42.186;24.340;2022-07-05T14:15:47;8.77;;;7.05;;
27728;SDS011;15126;42.186;24.340;2022-07-05T14:18:15;9.27;;;7.18;;
27728;SDS011;15126;42.186;24.340;2022-07-05T14:20:44;7.50;;;6.78;;
27728;SDS011;15126;42.186;24.340;2022-07-05T14:23:11;10.50;;;7.07;;
27728;SDS011;15126;42.186;24.340;2022-07-05T14:25:40;8.35;;;7.25;;
27728;SDS011;15126;42.186;24.340;2022-07-05T14:28:08;9.40;;;7.35;;
27728;SDS011;15126;42.186;24.340;2022-07-05T14:30:35;7.22;;;6.72;;
27728;SDS011;15126;42.186;24.340;2022-07-05T14:33:04;13.55;;;7.25;;
27728;SDS011;15126;42.186;24.340;2022-07-05T14:35:32;11.23;;;7.07;;
27728;SDS011;15126;42.186;24.340;2022-07-05T14:37:59;9.32;;;6.68;;
27728;SDS011;15126;42.186;24.340;2022-07-05T14:40:27;8.82;;;7.38;;
27728;SDS011;15126;42.186;24.340;2022-07-05T14:42:56;6.28;;;5.82;;
27728;SDS011;15126;42.186;24.340;2022-07-05T14:45:24;7.65;;;6.75;;
27728;SDS011;15126;42.186;24.340;2022-07-05T14:47:51;9.95;;;7.90;;